createdAt,value
2023-05-03T00:01:58.661Z,100111.88
2023-05-03T00:04:28.798Z,100111.94
2023-05-03T00:06:57.297Z,100114.81
2023-05-03T00:09:26.026Z,100111.44
2023-05-03T00:11:54.663Z,100116.34
2023-05-03T00:14:23.093Z,100115.09
2023-05-03T00:16:51.579Z,100119.09
2023-05-03T00:19:28.373Z,100116.63
2023-05-03T00:22:00.890Z,100115.78
2023-05-03T00:24:29.046Z,100116.75
2023-05-03T00:26:57.408Z,100106.50
2023-05-03T00:29:26.149Z,100116.75
2023-05-03T00:31:54.536Z,100110.94
2023-05-03T00:34:22.718Z,100113.94
2023-05-03T00:36:53.197Z,100122.34
2023-05-03T00:39:22.824Z,100119.81
2023-05-03T00:41:50.995Z,100113.03
2023-05-03T00:44:19.356Z,100108.81
2023-05-03T00:46:47.584Z,100104.34
2023-05-03T00:49:15.876Z,100102.88
2023-05-03T00:51:45.829Z,100106.28
2023-05-03T00:54:14.204Z,100114.00
2023-05-03T00:56:51.616Z,100112.34
2023-05-03T00:59:21.409Z,100101.25
2023-05-03T01:01:52.587Z,100103.88
2023-05-03T01:04:21.837Z,100099.59
2023-05-03T01:07:00.767Z,100103.69
2023-05-03T01:09:34.891Z,100098.19
2023-05-03T01:12:16.235Z,100094.94
2023-05-03T01:14:53.463Z,100088.44
2023-05-03T01:17:28.573Z,100088.25
2023-05-03T01:20:00.835Z,100085.88
2023-05-03T01:22:39.188Z,100080.03
2023-05-03T01:25:10.921Z,100083.50
2023-05-03T01:27:40.365Z,100079.16
2023-05-03T01:30:10.982Z,100093.72
2023-05-03T01:32:50.775Z,100084.91
2023-05-03T01:35:27.514Z,100085.84
2023-05-03T01:37:58.477Z,100093.94
2023-05-03T01:40:29.779Z,100091.91
2023-05-03T01:42:58.547Z,100087.72
2023-05-03T01:45:27.628Z,100089.66
2023-05-03T01:47:57.822Z,100094.03
2023-05-03T01:50:26.176Z,100093.31
2023-05-03T01:52:54.641Z,100091.75
2023-05-03T01:55:23.051Z,100093.13
2023-05-03T01:57:53.268Z,100097.47
2023-05-03T02:00:21.866Z,100089.69
2023-05-03T02:02:51.866Z,100088.38
2023-05-03T02:05:20.135Z,100090.94
2023-05-03T02:07:48.537Z,100091.00
2023-05-03T02:10:16.945Z,100094.06
2023-05-03T02:12:45.719Z,100091.91
2023-05-03T02:15:15.444Z,100098.16
2023-05-03T02:17:45.711Z,100092.28
2023-05-03T02:20:14.590Z,100087.25
2023-05-03T02:22:42.989Z,100091.56
2023-05-03T02:25:11.616Z,100095.75
2023-05-03T02:27:40.013Z,100101.34
2023-05-03T02:30:09.835Z,100105.81
2023-05-03T02:32:39.560Z,100104.50
2023-05-03T02:35:08.735Z,100115.09
2023-05-03T02:37:37.062Z,100110.50
2023-05-03T02:40:06.738Z,100112.03
2023-05-03T02:42:34.921Z,100116.78
2023-05-03T02:45:03.477Z,100115.50
2023-05-03T02:47:31.764Z,100119.16
2023-05-03T02:50:01.794Z,100116.22
2023-05-03T02:52:30.555Z,100114.59
2023-05-03T02:54:58.905Z,100119.84
2023-05-03T02:57:27.361Z,100123.50
2023-05-03T02:59:57.422Z,100133.94
2023-05-03T03:02:26.472Z,100127.88
2023-05-03T03:04:55.273Z,100112.13
2023-05-03T03:07:25.197Z,100121.84
2023-05-03T03:09:53.368Z,100121.03
2023-05-03T03:12:21.495Z,100115.72
2023-05-03T03:14:49.596Z,100117.78
2023-05-03T03:17:18.079Z,100106.28
2023-05-03T03:19:46.256Z,100106.38
2023-05-03T03:22:14.341Z,100104.50
2023-05-03T03:24:45.273Z,100108.78
2023-05-03T03:27:13.943Z,100109.13
2023-05-03T03:29:42.303Z,100101.50
2023-05-03T03:32:10.864Z,100096.09
2023-05-03T03:34:38.947Z,100100.75
2023-05-03T03:37:07.460Z,100097.69
2023-05-03T03:39:35.907Z,100108.19
2023-05-03T03:42:05.742Z,100109.50
2023-05-03T03:44:34.042Z,100110.47
2023-05-03T03:47:05.493Z,100106.94
2023-05-03T03:49:33.784Z,100119.13
2023-05-03T03:52:02.240Z,100118.63
2023-05-03T03:54:30.486Z,100122.91
2023-05-03T03:56:58.704Z,100117.66
2023-05-03T03:59:28.505Z,100116.09
2023-05-03T04:01:57.979Z,100124.88
2023-05-03T04:04:26.829Z,100123.84
2023-05-03T04:06:55.267Z,100117.44
2023-05-03T04:09:23.767Z,100115.69
2023-05-03T04:11:52.037Z,100126.13
2023-05-03T04:14:20.293Z,100124.41
2023-05-03T04:16:50.588Z,100121.59
2023-05-03T04:19:19.322Z,100131.41
2023-05-03T04:21:47.785Z,100131.50
2023-05-03T04:24:17.640Z,100124.38
2023-05-03T04:26:45.933Z,100123.75
2023-05-03T04:29:14.680Z,100134.47
2023-05-03T04:31:43.217Z,100134.13
2023-05-03T04:34:15.102Z,100131.66
2023-05-03T04:36:46.066Z,100141.38
2023-05-03T04:39:14.334Z,100136.97
2023-05-03T04:41:42.890Z,100140.28
2023-05-03T04:44:11.282Z,100143.19
2023-05-03T04:46:39.952Z,100142.00
2023-05-03T04:49:08.111Z,100140.81
2023-05-03T04:51:37.801Z,100137.25
2023-05-03T04:54:06.370Z,100141.31
2023-05-03T04:56:35.960Z,100147.34
2023-05-03T04:59:04.577Z,100152.22
2023-05-03T05:01:33.066Z,100150.50
2023-05-03T05:04:01.329Z,100145.44
2023-05-03T05:06:29.637Z,100158.22
2023-05-03T05:08:59.640Z,100155.41
2023-05-03T05:11:27.943Z,100147.56
2023-05-03T05:13:56.738Z,100148.84
2023-05-03T05:16:25.079Z,100146.59
2023-05-03T05:18:54.466Z,100139.59
2023-05-03T05:21:22.749Z,100145.59
2023-05-03T05:23:50.785Z,100151.19
2023-05-03T05:26:20.846Z,100154.28
2023-05-03T05:28:49.031Z,100147.81
2023-05-03T05:31:17.079Z,100149.50
2023-05-03T05:33:45.435Z,100144.47
2023-05-03T05:36:13.750Z,100142.53
2023-05-03T05:38:42.466Z,100146.28
2023-05-03T05:41:10.740Z,100141.50
2023-05-03T05:43:40.250Z,100142.31
2023-05-03T05:46:08.866Z,100146.16
2023-05-03T05:48:36.921Z,100141.53
2023-05-03T05:51:05.544Z,100148.09
2023-05-03T05:53:34.857Z,100154.16
2023-05-03T05:56:03.054Z,100156.63
2023-05-03T05:58:31.561Z,100157.19
2023-05-03T06:01:03.906Z,100166.94
2023-05-03T06:03:32.420Z,100158.63
2023-05-03T06:06:01.410Z,100160.22
2023-05-03T06:08:29.839Z,100145.88
2023-05-03T06:10:58.095Z,100146.38
2023-05-03T06:13:26.541Z,100141.72
2023-05-03T06:15:55.140Z,100148.38
2023-05-03T06:18:24.982Z,100146.88
2023-05-03T06:20:53.410Z,100141.38
2023-05-03T06:23:22.402Z,100145.06
2023-05-03T06:25:50.504Z,100149.13
2023-05-03T06:28:18.585Z,100148.22
2023-05-03T06:30:51.939Z,100152.78
2023-05-03T06:33:20.080Z,100156.00
2023-05-03T06:35:49.632Z,100148.25
2023-05-03T06:38:18.027Z,100149.97
2023-05-03T06:40:46.494Z,100152.94
2023-05-03T06:43:14.847Z,100145.44
2023-05-03T06:45:44.855Z,100149.78
2023-05-03T06:48:13.442Z,100141.72
2023-05-03T06:50:41.940Z,100144.00
2023-05-03T06:53:11.646Z,100146.69
2023-05-03T06:55:40.237Z,100149.53
2023-05-03T06:58:11.922Z,100144.25
2023-05-03T07:00:41.289Z,100141.09
2023-05-03T07:03:09.566Z,100140.19
2023-05-03T07:05:38.654Z,100128.47
2023-05-03T07:08:07.087Z,100128.25
2023-05-03T07:10:37.603Z,100132.50
2023-05-03T07:13:06.102Z,100123.47
2023-05-03T07:15:34.334Z,100123.88
2023-05-03T07:18:02.896Z,100126.72
2023-05-03T07:20:31.219Z,100129.31
2023-05-03T07:22:59.694Z,100135.22
2023-05-03T07:25:28.081Z,100131.13
2023-05-03T07:27:58.228Z,100135.75
2023-05-03T07:30:27.126Z,100143.47
2023-05-03T07:32:55.623Z,100136.94
2023-05-03T07:35:25.111Z,100136.28
2023-05-03T07:37:53.258Z,100138.63
2023-05-03T07:40:21.630Z,100142.03
2023-05-03T07:42:50.055Z,100145.66
2023-05-03T07:45:21.170Z,100133.31
2023-05-03T07:47:49.618Z,100139.25
2023-05-03T07:50:18.013Z,100127.59
2023-05-03T07:52:46.370Z,100140.47
2023-05-03T07:55:14.603Z,100143.06
2023-05-03T07:57:43.167Z,100135.41
2023-05-03T08:00:12.752Z,100124.16
2023-05-03T08:02:42.944Z,100121.81
2023-05-03T08:05:15.066Z,100120.38
2023-05-03T08:07:44.608Z,100132.06
2023-05-03T08:10:15.613Z,100130.50
2023-05-03T08:12:45.740Z,100118.97
2023-05-03T08:15:13.955Z,100137.94
2023-05-03T08:17:46.114Z,100121.63
2023-05-03T08:20:15.796Z,100134.19
2023-05-03T08:22:45.485Z,100117.56
2023-05-03T08:25:13.728Z,100128.09
2023-05-03T08:27:42.046Z,100125.47
2023-05-03T08:30:10.815Z,100124.75
2023-05-03T08:32:39.502Z,100116.44
2023-05-03T08:35:10.680Z,100116.22
2023-05-03T08:37:42.324Z,100123.78
2023-05-03T08:40:12.212Z,100124.75
2023-05-03T08:42:42.082Z,100122.50
2023-05-03T08:45:13.390Z,100119.41
2023-05-03T08:47:42.181Z,100112.38
2023-05-03T08:50:13.659Z,100114.53
2023-05-03T08:52:43.516Z,100120.03
2023-05-03T08:55:12.636Z,100117.03
2023-05-03T08:57:41.688Z,100120.88
2023-05-03T09:00:13.321Z,100121.47
2023-05-03T09:02:42.250Z,100119.69
2023-05-03T09:05:35.555Z,100111.69
2023-05-03T09:08:05.318Z,100108.78
2023-05-03T09:10:35.641Z,100114.50
2023-05-03T09:13:04.374Z,100108.44
2023-05-03T09:15:32.853Z,100105.34
2023-05-03T09:18:12.363Z,100099.91
2023-05-03T09:20:51.788Z,100109.81
2023-05-03T09:23:29.946Z,100109.16
2023-05-03T09:25:59.551Z,100106.19
2023-05-03T09:28:28.070Z,100104.63
2023-05-03T09:31:07.293Z,100102.13
2023-05-03T09:33:35.664Z,100094.53
2023-05-03T09:36:06.690Z,100101.31
2023-05-03T09:38:36.779Z,100095.94
2023-05-03T09:41:06.416Z,100091.56
2023-05-03T09:43:34.987Z,100092.63
2023-05-03T09:46:10.756Z,100089.69
2023-05-03T09:48:39.527Z,100082.69
2023-05-03T09:51:10.329Z,100088.13
2023-05-03T09:53:40.203Z,100085.03
2023-05-03T09:56:12.673Z,100079.94
2023-05-03T09:58:43.890Z,100077.53
2023-05-03T10:01:12.315Z,100072.09
2023-05-03T10:03:44.219Z,100068.78
2023-05-03T10:06:26.749Z,100066.38
2023-05-03T10:08:59.622Z,100065.69
2023-05-03T10:11:29.415Z,100073.28
2023-05-03T10:13:58.094Z,100074.25
2023-05-03T10:16:31.695Z,100071.91
2023-05-03T10:19:08.985Z,100069.34
2023-05-03T10:21:55.658Z,100061.34
2023-05-03T10:24:24.328Z,100073.41
2023-05-03T10:26:53.413Z,100058.78
2023-05-03T10:29:49.750Z,100062.44
2023-05-03T10:32:39.791Z,100057.53
2023-05-03T10:35:10.953Z,100059.25
2023-05-03T10:37:42.693Z,100064.38
2023-05-03T10:40:14.151Z,100073.56
2023-05-03T10:42:45.624Z,100073.06
2023-05-03T10:45:23.065Z,100063.44
2023-05-03T10:48:20.962Z,100076.69
2023-05-03T10:50:50.500Z,100064.75
2023-05-03T10:53:50.910Z,100053.19
2023-05-03T10:56:19.323Z,100063.94
2023-05-03T10:58:50.862Z,100052.53
2023-05-03T11:01:20.477Z,100061.72
2023-05-03T11:03:53.568Z,100052.56
2023-05-03T11:06:33.584Z,100041.16
2023-05-03T11:09:06.129Z,100032.75
2023-05-03T11:11:34.874Z,100026.41
2023-05-03T11:14:03.458Z,100026.31
2023-05-03T11:16:32.032Z,100011.28
2023-05-03T11:19:01.195Z,100015.06
2023-05-03T11:21:29.464Z,100002.84
2023-05-03T11:24:00.553Z,100011.16
2023-05-03T11:26:30.551Z,100005.84
2023-05-03T11:28:58.800Z,100009.25
2023-05-03T11:31:27.213Z,100010.38
2023-05-03T11:33:55.473Z,100008.66
2023-05-03T11:36:23.620Z,100007.38
2023-05-03T11:38:51.966Z,100013.47
2023-05-03T11:41:20.738Z,100008.09
2023-05-03T11:44:00.798Z,100013.00
2023-05-03T11:46:37.113Z,99999.31
2023-05-03T11:49:05.590Z,100004.59
2023-05-03T11:51:33.806Z,99999.31
2023-05-03T11:54:16.985Z,100009.19
2023-05-03T11:56:53.127Z,100004.97
2023-05-03T11:59:36.051Z,99994.72
2023-05-03T12:02:04.419Z,99993.34
2023-05-03T12:04:33.537Z,99985.16
2023-05-03T12:07:03.002Z,99985.13
2023-05-03T12:09:32.485Z,99978.59
2023-05-03T12:12:02.581Z,99975.06
2023-05-03T12:14:57.816Z,99980.59
2023-05-03T12:17:37.984Z,99981.81
2023-05-03T12:22:57.914Z,99974.25
2023-05-03T12:25:30.698Z,99975.94
2023-05-03T12:28:18.005Z,99966.66
2023-05-03T12:30:52.945Z,99970.91
2023-05-03T12:33:23.171Z,99957.47
2023-05-03T12:35:54.240Z,99954.34
2023-05-03T12:38:24.316Z,99938.59
2023-05-03T12:40:54.832Z,99939.81
2023-05-03T12:43:23.252Z,99937.19
2023-05-03T12:46:08.505Z,99936.22
2023-05-03T12:48:44.129Z,99937.94
2023-05-03T12:53:47.213Z,99916.59
2023-05-03T12:56:17.465Z,99923.94
2023-05-03T13:02:17.167Z,99912.13
2023-05-03T13:06:45.241Z,99900.56
2023-05-03T13:09:19.919Z,99902.38
2023-05-03T13:11:50.286Z,99902.00
2023-05-03T13:14:18.891Z,99899.66
2023-05-03T13:16:49.361Z,99906.91
2023-05-03T13:19:17.783Z,99903.16
2023-05-03T13:21:48.685Z,99897.16
2023-05-03T13:24:18.896Z,99885.81
2023-05-03T13:26:47.366Z,99883.28
2023-05-03T13:29:15.747Z,99876.16
2023-05-03T13:31:43.949Z,99877.31
2023-05-03T13:34:13.804Z,99871.28
2023-05-03T13:36:41.957Z,99870.72
2023-05-03T13:39:10.766Z,99873.56
2023-05-03T13:41:42.361Z,99873.94
2023-05-03T13:44:11.980Z,99869.38
2023-05-03T13:46:41.495Z,99852.78
2023-05-03T13:49:09.773Z,99858.91
2023-05-03T13:51:39.783Z,99848.22
2023-05-03T13:54:09.261Z,99848.84
2023-05-03T13:56:38.133Z,99844.06
2023-05-03T13:59:08.694Z,99842.81
2023-05-03T14:01:36.968Z,99841.34
2023-05-03T14:04:05.614Z,99840.19
2023-05-03T14:06:34.371Z,99839.88
2023-05-03T14:09:05.029Z,99838.03
2023-05-03T14:11:33.393Z,99837.03
2023-05-03T14:14:01.751Z,99830.94
2023-05-03T14:19:01.292Z,99822.81
2023-05-03T14:21:31.907Z,99819.25
2023-05-03T14:24:00.230Z,99811.16
2023-05-03T14:26:30.588Z,99810.16
2023-05-03T14:29:00.652Z,99823.22
2023-05-03T14:31:29.260Z,99809.44
2023-05-03T14:33:57.481Z,99811.09
2023-05-03T14:36:25.734Z,99808.25
2023-05-03T14:38:53.864Z,99796.94
2023-05-03T14:41:22.149Z,99796.78
2023-05-03T14:43:51.760Z,99797.56
2023-05-03T14:46:21.245Z,99797.91
2023-05-03T14:48:49.961Z,99793.06
2023-05-03T14:51:19.105Z,99787.84
2023-05-03T14:53:47.434Z,99789.31
2023-05-03T14:56:15.740Z,99788.44
2023-05-03T14:58:44.139Z,99799.94
2023-05-03T15:01:20.540Z,99794.06
2023-05-03T15:03:49.833Z,99792.22
2023-05-03T15:06:24.331Z,99786.50
2023-05-03T15:08:52.673Z,99790.66
2023-05-03T15:11:21.258Z,99780.31
2023-05-03T15:13:49.463Z,99783.91
2023-05-03T15:16:19.534Z,99780.16
2023-05-03T15:18:49.734Z,99772.25
2023-05-03T15:21:21.402Z,99770.94
2023-05-03T15:23:49.886Z,99778.09
2023-05-03T15:26:18.194Z,99774.09
2023-05-03T15:28:46.247Z,99774.91
2023-05-03T15:31:15.151Z,99768.31
2023-05-03T15:33:46.260Z,99774.59
2023-05-03T15:36:16.920Z,99771.69
2023-05-03T15:38:45.663Z,99776.97
2023-05-03T15:41:16.415Z,99767.97
2023-05-03T15:43:46.765Z,99772.72
2023-05-03T15:46:15.317Z,99762.59
2023-05-03T15:48:45.483Z,99762.44
2023-05-03T15:51:13.987Z,99762.72
2023-05-03T15:53:42.691Z,99763.91
2023-05-03T15:56:12.011Z,99765.47
2023-05-03T15:58:42.534Z,99758.00
2023-05-03T16:01:12.920Z,99762.22
2023-05-03T16:03:48.691Z,99763.78
2023-05-03T16:06:18.453Z,99768.41
2023-05-03T16:08:47.086Z,99761.88
2023-05-03T16:11:16.121Z,99759.50
2023-05-03T16:13:45.559Z,99762.09
2023-05-03T16:16:13.904Z,99762.06
2023-05-03T16:18:41.991Z,99761.47
2023-05-03T16:21:12.034Z,99751.50
2023-05-03T16:23:40.984Z,99759.28
2023-05-03T16:26:14.654Z,99762.31
2023-05-03T16:28:43.439Z,99762.75
2023-05-03T16:31:12.474Z,99752.06
2023-05-03T16:33:41.018Z,99756.66
2023-05-03T16:36:09.833Z,99741.91
2023-05-03T16:38:40.268Z,99751.72
2023-05-03T16:41:09.131Z,99740.81
2023-05-03T16:43:38.275Z,99745.44
2023-05-03T16:46:07.156Z,99748.81
2023-05-03T16:48:36.764Z,99738.16
2023-05-03T16:51:05.476Z,99738.88
2023-05-03T16:53:34.571Z,99736.72
2023-05-03T16:56:04.678Z,99733.41
2023-05-03T16:58:40.229Z,99735.22
2023-05-03T17:01:08.709Z,99735.97
2023-05-03T17:03:37.285Z,99724.88
2023-05-03T17:06:06.683Z,99726.28
2023-05-03T17:08:34.954Z,99726.13
2023-05-03T17:11:08.387Z,99735.34
2023-05-03T17:13:36.578Z,99731.78
2023-05-03T17:16:10.206Z,99732.28
2023-05-03T17:18:40.611Z,99729.44
2023-05-03T17:21:09.835Z,99723.13
2023-05-03T17:23:39.742Z,99725.69
2023-05-03T17:26:11.104Z,99727.66
2023-05-03T17:28:39.301Z,99719.16
2023-05-03T17:31:08.259Z,99727.97
2023-05-03T17:33:37.988Z,99730.88
2023-05-03T17:36:06.692Z,99722.72
2023-05-03T17:38:36.376Z,99719.88
2023-05-03T17:41:05.557Z,99726.84
2023-05-03T17:43:35.837Z,99727.09
2023-05-03T17:46:14.996Z,99730.19
2023-05-03T17:48:44.403Z,99724.47
2023-05-03T17:51:13.783Z,99724.34
2023-05-03T17:53:43.362Z,99732.75
2023-05-03T17:56:15.501Z,99717.09
2023-05-03T17:58:46.727Z,99721.88
2023-05-03T18:01:16.143Z,99716.72
2023-05-03T18:03:44.814Z,99721.72
2023-05-03T18:06:14.582Z,99723.19
2023-05-03T18:08:43.020Z,99716.34
2023-05-03T18:11:11.466Z,99714.66
2023-05-03T18:13:40.340Z,99716.94
2023-05-03T18:16:11.813Z,99722.09
2023-05-03T18:18:40.262Z,99725.63
2023-05-03T18:21:10.675Z,99726.38
2023-05-03T18:23:39.084Z,99727.97
2023-05-03T18:26:08.160Z,99724.00
2023-05-03T18:28:37.784Z,99725.16
2023-05-03T18:31:07.754Z,99726.53
2023-05-03T18:33:40.128Z,99725.09
2023-05-03T18:36:11.894Z,99738.19
2023-05-03T18:38:40.422Z,99732.06
2023-05-03T18:41:14.503Z,99731.03
2023-05-03T18:43:43.471Z,99742.69
2023-05-03T18:46:12.263Z,99733.94
2023-05-03T18:48:41.798Z,99744.31
2023-05-03T18:51:10.709Z,99739.47
2023-05-03T18:53:38.810Z,99745.56
2023-05-03T18:56:07.339Z,99747.91
2023-05-03T18:58:35.670Z,99740.34
2023-05-03T19:01:04.996Z,99743.72
2023-05-03T19:03:33.556Z,99753.53
2023-05-03T19:06:05.674Z,99750.94
2023-05-03T19:08:33.921Z,99754.94
2023-05-03T19:11:08.585Z,99750.63
2023-05-03T19:13:37.823Z,99756.66
2023-05-03T19:16:06.708Z,99757.19
2023-05-03T19:18:37.292Z,99754.59
2023-05-03T19:21:07.404Z,99753.53
2023-05-03T19:23:35.778Z,99757.03
2023-05-03T19:26:04.253Z,99768.88
2023-05-03T19:28:32.848Z,99762.44
2023-05-03T19:31:04.665Z,99759.56
2023-05-03T19:33:33.236Z,99754.31
2023-05-03T19:36:06.919Z,99752.25
2023-05-03T19:38:37.136Z,99754.03
2023-05-03T19:41:09.703Z,99759.38
2023-05-03T19:43:38.027Z,99757.25
2023-05-03T19:46:06.523Z,99757.69
2023-05-03T19:48:35.162Z,99762.13
2023-05-03T19:51:05.503Z,99760.81
2023-05-03T19:53:35.336Z,99765.34
2023-05-03T19:56:05.350Z,99776.53
2023-05-03T19:58:33.704Z,99769.50
2023-05-03T20:01:02.038Z,99764.50
2023-05-03T20:03:30.380Z,99777.03
2023-05-03T20:05:58.811Z,99759.94
2023-05-03T20:08:27.444Z,99765.72
2023-05-03T20:10:56.956Z,99768.78
2023-05-03T20:13:27.875Z,99767.34
2023-05-03T20:15:56.429Z,99760.53
2023-05-03T20:18:24.911Z,99758.50
2023-05-03T20:20:53.352Z,99760.31
2023-05-03T20:23:22.456Z,99755.72
2023-05-03T20:25:50.901Z,99757.19
2023-05-03T20:28:19.586Z,99754.13
2023-05-03T20:30:49.698Z,99757.19
2023-05-03T20:33:17.897Z,99755.19
2023-05-03T20:35:46.673Z,99751.25
2023-05-03T20:38:15.375Z,99748.47
2023-05-03T20:40:45.151Z,99743.25
2023-05-03T20:43:13.549Z,99743.47
2023-05-03T20:45:43.678Z,99745.47
2023-05-03T20:48:13.759Z,99750.63
2023-05-03T20:50:41.771Z,99747.53
2023-05-03T20:53:10.457Z,99744.97
2023-05-03T20:55:41.637Z,99741.44
2023-05-03T20:58:10.052Z,99745.38
2023-05-03T21:00:38.982Z,99740.25
2023-05-03T21:03:07.616Z,99741.66
2023-05-03T21:05:37.721Z,99738.03
2023-05-03T21:08:06.247Z,99740.34
2023-05-03T21:10:34.517Z,99746.75
2023-05-03T21:13:03.710Z,99744.28
2023-05-03T21:15:32.326Z,99743.00
2023-05-03T21:18:06.407Z,99746.75
2023-05-03T21:20:34.961Z,99746.09
2023-05-03T21:23:05.933Z,99753.06
2023-05-03T21:25:34.350Z,99748.88
2023-05-03T21:28:02.851Z,99754.16
2023-05-03T21:30:31.077Z,99755.75
2023-05-03T21:32:59.198Z,99752.34
2023-05-03T21:35:30.617Z,99747.88
2023-05-03T21:37:59.258Z,99749.44
2023-05-03T21:40:29.583Z,99753.50
2023-05-03T21:42:58.024Z,99742.97
2023-05-03T21:45:26.379Z,99739.56
2023-05-03T21:47:54.673Z,99737.25
2023-05-03T21:50:23.790Z,99730.97
2023-05-03T21:52:52.303Z,99724.22
2023-05-03T21:55:21.026Z,99726.66
2023-05-03T21:57:51.684Z,99728.34
2023-05-03T22:00:21.013Z,99729.69
2023-05-03T22:02:50.028Z,99727.19
2023-05-03T22:05:18.630Z,99725.31
2023-05-03T22:07:48.699Z,99726.44
2023-05-03T22:10:17.361Z,99716.75
2023-05-03T22:12:45.561Z,99717.72
2023-05-03T22:15:15.516Z,99709.56
2023-05-03T22:17:43.850Z,99719.06
2023-05-03T22:20:12.976Z,99718.00
2023-05-03T22:22:41.940Z,99719.13
2023-05-03T22:25:13.003Z,99714.66
2023-05-03T22:27:41.381Z,99714.47
2023-05-03T22:30:10.550Z,99708.97
2023-05-03T22:32:40.310Z,99711.25
2023-05-03T22:35:09.496Z,99706.16
2023-05-03T22:37:37.999Z,99703.31
2023-05-03T22:40:09.353Z,99699.81
2023-05-03T22:42:38.195Z,99697.69
2023-05-03T22:45:07.251Z,99697.84
2023-05-03T22:47:35.915Z,99697.75
2023-05-03T22:50:07.750Z,99697.09
2023-05-03T22:52:35.832Z,99698.03
2023-05-03T22:55:04.249Z,99693.03
2023-05-03T22:57:32.483Z,99698.56
2023-05-03T23:00:01.005Z,99685.41
2023-05-03T23:02:29.540Z,99694.47
2023-05-03T23:04:57.851Z,99690.94
2023-05-03T23:07:28.446Z,99688.38
2023-05-03T23:10:03.063Z,99689.66
2023-05-03T23:12:31.740Z,99692.97
2023-05-03T23:14:59.991Z,99687.66
2023-05-03T23:17:28.730Z,99682.38
2023-05-03T23:19:57.116Z,99688.84
2023-05-03T23:22:26.687Z,99688.59
2023-05-03T23:24:54.761Z,99686.59
2023-05-03T23:27:23.135Z,99686.78
2023-05-03T23:29:52.648Z,99681.16
2023-05-03T23:32:21.978Z,99684.97
2023-05-03T23:34:51.023Z,99684.97
2023-05-03T23:37:19.686Z,99686.78
2023-05-03T23:39:49.488Z,99694.94
2023-05-03T23:42:18.115Z,99685.66
2023-05-03T23:44:53.638Z,99694.13
2023-05-03T23:47:26.179Z,99695.28
2023-05-03T23:49:54.621Z,99692.94
2023-05-03T23:52:22.860Z,99690.53
2023-05-03T23:54:53.637Z,99691.22
2023-05-03T23:57:23.372Z,99697.97
2023-05-03T23:59:51.827Z,99694.41
